Time;durP1;ratioP1;P1;durP2;ratioP2;P2;SDS_P1;SDS_P2;PMS_P1;PMS_P2;Temp;Humidity;BMP_temperature;BMP_pressure;BME280_temperature;BME280_humidity;BME280_pressure;Samples;Min_cycle;Max_cycle;Signal;HPM_P1;HPM_P2
2021/10/16 00:02:13;;;;;;;11.45;4.93;;;9.60;95.00;;;;;;4995111;28;20027;-75
2021/10/16 00:04:39;;;;;;;8.82;5.43;;;9.60;95.00;;;;;;4994987;28;20030;-76
2021/10/16 00:07:05;;;;;;;10.13;5.53;;;9.60;95.00;;;;;;4994333;28;20033;-75
2021/10/16 00:09:30;;;;;;;9.80;5.38;;;9.60;95.10;;;;;;4994546;28;20447;-75
2021/10/16 00:11:56;;;;;;;14.18;6.45;;;9.60;95.10;;;;;;4993031;28;20518;-76
2021/10/16 00:14:22;;;;;;;11.90;5.40;;;9.60;95.10;;;;;;4994360;28;20049;-76
2021/10/16 00:16:47;;;;;;;9.57;4.65;;;9.50;95.10;;;;;;4994548;28;20051;-75
2021/10/16 00:19:13;;;;;;;9.98;5.13;;;9.50;95.20;;;;;;4994237;28;20046;-77
2021/10/16 00:21:39;;;;;;;16.50;5.43;;;9.50;95.10;;;;;;4994548;28;20022;-77
2021/10/16 00:24:05;;;;;;;10.68;5.97;;;9.50;95.20;;;;;;4992613;28;20406;-76
2021/10/16 00:26:33;;;;;;;11.52;5.15;;;9.50;95.20;;;;;;4992279;28;20022;-76
2021/10/16 00:28:58;;;;;;;9.93;4.50;;;9.50;95.20;;;;;;4993756;28;20029;-76
2021/10/16 00:31:24;;;;;;;9.77;3.80;;;9.50;95.10;;;;;;5009239;28;20033;-76
2021/10/16 00:33:50;;;;;;;11.65;5.80;;;9.50;95.20;;;;;;4993757;28;20036;-76
2021/10/16 00:36:16;;;;;;;13.70;6.20;;;9.50;95.20;;;;;;4992728;28;20076;-76
2021/10/16 00:38:41;;;;;;;10.52;5.95;;;9.50;95.20;;;;;;5009535;28;20057;-75
2021/10/16 00:41:09;;;;;;;14.65;5.50;;;9.40;95.20;;;;;;4993418;28;20022;-76
2021/10/16 00:43:34;;;;;;;8.32;4.65;;;9.40;95.20;;;;;;5008938;28;20034;-76
2021/10/16 00:46:00;;;;;;;12.88;4.55;;;9.40;95.20;;;;;;4993510;28;20145;-77
2021/10/16 00:48:25;;;;;;;11.05;4.03;;;9.40;95.20;;;;;;5009119;28;20367;-76
2021/10/16 00:50:52;;;;;;;10.52;4.47;;;9.40;95.20;;;;;;4993400;28;20125;-76
2021/10/16 00:53:18;;;;;;;14.55;4.63;;;9.40;95.20;;;;;;4992483;28;20049;-77
2021/10/16 00:55:44;;;;;;;11.52;4.32;;;9.40;95.20;;;;;;4994007;28;20022;-76
2021/10/16 00:58:11;;;;;;;9.88;3.53;;;9.30;95.20;;;;;;4993313;28;20072;-76
2021/10/16 01:00:36;;;;;;;8.40;3.55;;;9.30;95.30;;;;;;4993558;28;20050;-76
2021/10/16 01:03:02;;;;;;;8.45;3.08;;;9.30;95.30;;;;;;4992866;28;20479;-76
2021/10/16 01:05:28;;;;;;;6.05;2.42;;;9.30;95.30;;;;;;4993764;28;20038;-76
2021/10/16 01:07:54;;;;;;;8.70;2.78;;;9.30;95.30;;;;;;5008211;28;20030;-76
2021/10/16 01:10:20;;;;;;;7.20;2.45;;;9.30;95.30;;;;;;4993913;28;20372;-76
2021/10/16 01:12:47;;;;;;;5.20;2.50;;;9.30;95.30;;;;;;4993631;28;20034;-76
2021/10/16 01:15:16;;;;;;;5.60;2.40;;;9.30;95.40;;;;;;4991738;28;20043;-77
2021/10/16 01:17:50;;;;;;;5.05;2.10;;;9.20;95.30;;;;;;4992265;28;20089;-77
2021/10/16 01:20:18;;;;;;;5.00;2.47;;;9.30;95.30;;;;;;4991756;28;20027;-77
2021/10/16 01:22:45;;;;;;;4.90;2.35;;;9.20;95.30;;;;;;4992052;28;20030;-76
2021/10/16 01:25:18;;;;;;;4.20;2.30;;;9.20;95.40;;;;;;5007790;28;20030;-76
2021/10/16 01:27:45;;;;;;;6.00;2.60;;;9.20;95.40;;;;;;5008428;28;20427;-76
2021/10/16 01:30:14;;;;;;;5.35;2.78;;;9.30;95.40;;;;;;4992583;28;20030;-75
2021/10/16 01:32:41;;;;;;;6.80;1.83;;;9.20;95.40;;;;;;4993355;28;20051;-75
2021/10/16 01:35:09;;;;;;;5.25;2.28;;;9.20;95.40;;;;;;5007604;28;20039;-76
2021/10/16 01:37:38;;;;;;;3.92;2.53;;;9.20;95.40;;;;;;4992963;28;20076;-76
2021/10/16 01:40:04;;;;;;;7.28;1.70;;;9.10;95.50;;;;;;4992610;28;20018;-76
2021/10/16 01:42:30;;;;;;;6.25;2.58;;;9.10;95.60;;;;;;4993087;28;20035;-76
2021/10/16 01:44:55;;;;;;;4.20;2.63;;;9.10;95.70;;;;;;4992466;28;20379;-76
2021/10/16 01:47:21;;;;;;;5.05;2.65;;;9.00;95.70;;;;;;4992664;28;20034;-76
2021/10/16 01:49:46;;;;;;;7.32;2.88;;;9.00;95.70;;;;;;4992949;28;20022;-75
2021/10/16 01:52:12;;;;;;;6.05;2.70;;;9.00;95.70;;;;;;4992268;28;20381;-75
2021/10/16 01:54:38;;;;;;;5.90;2.80;;;9.10;95.70;;;;;;4992601;28;20022;-75
2021/10/16 01:57:04;;;;;;;6.53;2.13;;;9.10;95.70;;;;;;5007352;28;20034;-76
2021/10/16 01:59:29;;;;;;;3.88;2.40;;;9.10;95.70;;;;;;4992873;28;20018;-75
2021/10/16 02:01:55;;;;;;;4.07;2.42;;;9.10;95.60;;;;;;5007664;28;20029;-77
2021/10/16 02:04:21;;;;;;;4.90;2.22;;;9.10;95.60;;;;;;5008080;28;20057;-76
2021/10/16 02:06:47;;;;;;;4.70;2.08;;;9.10;95.60;;;;;;4992793;28;20026;-76
2021/10/16 02:09:13;;;;;;;4.10;2.03;;;9.10;95.60;;;;;;5007197;28;20022;-76
2021/10/16 02:11:39;;;;;;;3.45;1.80;;;9.10;95.50;;;;;;5007765;28;20426;-76
2021/10/16 02:14:09;;;;;;;4.82;1.92;;;9.10;95.50;;;;;;4990755;28;20061;-76
2021/10/16 02:16:36;;;;;;;3.93;2.00;;;9.10;95.50;;;;;;4992758;28;20055;-76
2021/10/16 02:19:03;;;;;;;5.18;1.42;;;9.10;95.50;;;;;;4991790;28;20447;-76
2021/10/16 02:21:29;;;;;;;5.80;2.00;;;9.10;95.50;;;;;;4991600;28;20037;-76
2021/10/16 02:23:54;;;;;;;3.33;2.05;;;9.10;95.50;;;;;;4992414;28;20117;-76
2021/10/16 02:26:20;;;;;;;3.92;1.80;;;9.10;95.50;;;;;;4991811;28;20031;-76
2021/10/16 02:28:46;;;;;;;4.35;1.65;;;9.10;95.50;;;;;;4992602;28;20023;-76
2021/10/16 02:31:11;;;;;;;3.15;1.70;;;9.10;95.50;;;;;;4991848;28;20160;-76
2021/10/16 02:33:37;;;;;;;3.22;1.73;;;9.10;95.50;;;;;;5007103;28;20077;-77
2021/10/16 02:36:03;;;;;;;3.17;1.73;;;9.10;95.50;;;;;;4990659;28;20019;-77
2021/10/16 02:38:29;;;;;;;4.45;1.65;;;9.10;95.50;;;;;;4992571;28;20038;-76
2021/10/16 02:40:55;;;;;;;4.70;1.98;;;9.10;95.40;;;;;;4991126;28;20045;-75
2021/10/16 02:43:20;;;;;;;3.88;1.98;;;9.20;95.40;;;;;;5006833;28;20117;-75
2021/10/16 02:45:46;;;;;;;5.47;2.35;;;9.30;95.40;;;;;;4990720;28;20073;-75
2021/10/16 02:48:12;;;;;;;3.95;2.00;;;9.30;95.30;;;;;;5006813;28;20022;-75
2021/10/16 02:50:37;;;;;;;7.07;2.03;;;9.20;95.30;;;;;;4996508;28;20448;-75
2021/10/16 02:53:03;;;;;;;2.60;1.55;;;9.30;95.30;;;;;;4995270;28;20048;-76
2021/10/16 02:55:28;;;;;;;3.45;1.73;;;9.30;95.30;;;;;;4996219;28;20027;-76
2021/10/16 02:57:54;;;;;;;4.43;1.80;;;9.30;95.30;;;;;;4995902;28;20029;-76
2021/10/16 03:00:20;;;;;;;5.43;1.77;;;9.30;95.20;;;;;;4995208;28;20549;-76
2021/10/16 03:02:45;;;;;;;3.65;1.55;;;9.40;95.30;;;;;;4996060;28;20084;-76
2021/10/16 03:05:11;;;;;;;5.20;1.80;;;9.40;95.20;;;;;;5010255;28;20034;-76
2021/10/16 03:07:37;;;;;;;5.35;1.60;;;9.50;95.20;;;;;;4995952;28;20023;-76
2021/10/16 03:10:03;;;;;;;6.30;2.22;;;9.50;95.10;;;;;;4995305;28;20026;-76
2021/10/16 03:12:29;;;;;;;2.35;1.50;;;9.50;95.10;;;;;;4995785;28;20117;-76
2021/10/16 03:14:55;;;;;;;4.70;1.77;;;9.50;95.10;;;;;;4995809;28;20111;-76
2021/10/16 03:17:20;;;;;;;5.28;1.60;;;9.50;95.10;;;;;;5010193;28;20157;-76
2021/10/16 03:19:46;;;;;;;3.10;1.52;;;9.50;95.00;;;;;;5010797;28;20419;-76
2021/10/16 03:22:12;;;;;;;3.30;1.83;;;9.50;95.00;;;;;;4993782;28;20026;-76
2021/10/16 03:24:38;;;;;;;3.67;1.60;;;9.60;95.10;;;;;;4995598;28;20034;-76
2021/10/16 03:27:04;;;;;;;8.80;2.45;;;9.60;95.00;;;;;;5010020;28;20501;-76
2021/10/16 03:29:31;;;;;;;4.07;1.98;;;9.60;95.00;;;;;;4995284;28;20026;-77
2021/10/16 03:31:56;;;;;;;3.20;1.95;;;9.60;95.00;;;;;;4995163;28;20054;-76
2021/10/16 03:34:22;;;;;;;5.07;1.70;;;9.70;95.00;;;;;;5009991;28;20161;-76
2021/10/16 03:36:48;;;;;;;5.93;1.92;;;9.70;95.00;;;;;;4995472;28;20116;-76
2021/10/16 03:39:14;;;;;;;4.03;1.90;;;9.70;95.00;;;;;;5009792;28;20033;-77
2021/10/16 03:41:39;;;;;;;4.30;1.70;;;9.80;94.90;;;;;;4995414;28;20018;-76
2021/10/16 03:44:05;;;;;;;6.10;1.70;;;9.80;94.90;;;;;;4993345;28;20474;-76
2021/10/16 03:46:31;;;;;;;2.63;1.48;;;9.80;94.90;;;;;;4995157;28;20045;-76
2021/10/16 03:48:57;;;;;;;5.95;1.63;;;9.80;94.90;;;;;;4995296;28;20022;-76
2021/10/16 03:51:22;;;;;;;5.40;1.52;;;9.80;94.90;;;;;;4995447;28;20268;-77
2021/10/16 03:53:48;;;;;;;3.75;1.70;;;9.80;94.90;;;;;;4995273;28;20026;-76
2021/10/16 03:56:14;;;;;;;3.22;1.50;;;9.80;95.00;;;;;;4993130;28;20069;-76
2021/10/16 03:58:40;;;;;;;3.78;1.55;;;9.80;95.00;;;;;;4993882;28;20490;-77
2021/10/16 04:01:06;;;;;;;7.05;1.83;;;9.80;95.00;;;;;;5009004;28;20057;-77
2021/10/16 04:03:35;;;;;;;5.45;1.58;;;9.90;95.00;;;;;;5010056;28;20113;-76
2021/10/16 04:06:00;;;;;;;2.53;1.30;;;9.90;95.00;;;;;;4995016;28;20030;-77
2021/10/16 04:08:26;;;;;;;3.38;1.45;;;9.90;95.00;;;;;;4994293;28;20033;-77
2021/10/16 04:10:52;;;;;;;4.45;2.22;;;9.90;95.00;;;;;;4993442;28;20033;-77
2021/10/16 04:13:17;;;;;;;3.53;1.35;;;10.00;95.00;;;;;;4993815;28;20038;-77
2021/10/16 04:15:43;;;;;;;4.57;1.65;;;10.00;95.00;;;;;;4994691;28;20382;-77
2021/10/16 04:18:08;;;;;;;5.78;1.90;;;10.00;95.00;;;;;;4994120;28;20030;-77
2021/10/16 04:20:34;;;;;;;4.97;1.40;;;10.00;95.00;;;;;;4994615;28;20031;-76
2021/10/16 04:23:00;;;;;;;2.70;1.60;;;10.00;95.00;;;;;;4994283;28;20481;-76
2021/10/16 04:25:26;;;;;;;4.60;2.00;;;10.10;95.00;;;;;;4992670;28;20030;-77
2021/10/16 04:27:51;;;;;;;8.30;1.85;;;10.10;95.00;;;;;;4994655;28;20033;-76
2021/10/16 04:30:17;;;;;;;2.83;1.65;;;10.10;95.00;;;;;;4992295;28;20018;-77
2021/10/16 04:32:43;;;;;;;4.70;1.75;;;10.10;95.00;;;;;;4992684;28;20077;-76
2021/10/16 04:35:09;;;;;;;4.65;1.83;;;10.10;95.10;;;;;;4993606;28;20470;-76
2021/10/16 04:37:36;;;;;;;5.50;2.30;;;10.10;95.10;;;;;;4992959;28;20022;-77
2021/10/16 04:40:40;;;;;;;5.80;2.05;;;10.10;95.10;;;;;;4993067;28;20165;-77
2021/10/16 04:43:01;;;;;;;5.72;2.03;;;10.10;95.10;;;;;;4995363;28;20035;-77
2021/10/16 04:45:27;;;;;;;3.13;1.75;;;10.10;95.10;;;;;;4995933;28;20702;-76
2021/10/16 04:47:52;;;;;;;4.20;1.80;;;10.10;95.10;;;;;;5012180;28;20525;-77
2021/10/16 04:50:18;;;;;;;6.35;1.92;;;10.10;95.10;;;;;;5013093;28;20093;-76
2021/10/16 04:52:44;;;;;;;3.17;1.58;;;10.10;95.20;;;;;;5013466;28;20034;-77
2021/10/16 04:55:10;;;;;;;4.55;1.98;;;10.10;95.10;;;;;;5012970;28;20471;-77
2021/10/16 04:57:35;;;;;;;4.60;1.90;;;10.10;95.20;;;;;;5013198;28;20244;-77
2021/10/16 05:00:01;;;;;;;4.00;1.88;;;10.10;95.20;;;;;;5012174;28;20116;-76
2021/10/16 05:02:26;;;;;;;4.20;1.75;;;10.10;95.20;;;;;;5012689;28;20104;-77
2021/10/16 05:04:53;;;;;;;5.00;2.00;;;10.10;95.20;;;;;;5013359;28;20097;-77
2021/10/16 05:07:19;;;;;;;8.20;2.05;;;10.10;95.20;;;;;;5012660;28;20030;-76
2021/10/16 05:09:45;;;;;;;5.88;2.42;;;10.10;95.20;;;;;;5013238;28;20030;-76
2021/10/16 05:12:11;;;;;;;4.90;2.22;;;10.10;95.20;;;;;;5010614;28;20080;-77
2021/10/16 05:14:37;;;;;;;5.88;1.98;;;10.10;95.20;;;;;;5012793;28;20030;-76
2021/10/16 05:17:03;;;;;;;5.30;2.00;;;10.10;95.20;;;;;;5011553;28;20056;-76
2021/10/16 05:19:30;;;;;;;3.92;1.80;;;10.20;95.20;;;;;;5011205;28;20093;-77
2021/10/16 05:21:55;;;;;;;4.40;2.13;;;10.20;95.20;;;;;;5013079;28;20049;-77
2021/10/16 05:24:21;;;;;;;3.67;2.08;;;10.20;95.20;;;;;;5027679;28;20505;-77
2021/10/16 05:26:47;;;;;;;3.28;1.90;;;10.20;95.20;;;;;;5013340;28;20417;-76
2021/10/16 05:29:12;;;;;;;3.47;1.60;;;10.20;95.20;;;;;;5011074;28;20025;-77
2021/10/16 05:31:38;;;;;;;4.03;1.95;;;10.20;95.20;;;;;;5012536;28;20405;-77
2021/10/16 05:34:04;;;;;;;2.85;1.80;;;10.20;95.20;;;;;;5011530;28;20025;-77
2021/10/16 05:36:29;;;;;;;4.20;1.60;;;10.20;95.20;;;;;;5012239;28;20076;-77
2021/10/16 05:38:55;;;;;;;7.65;2.03;;;10.20;95.20;;;;;;5012461;28;20025;-77
2021/10/16 05:41:20;;;;;;;4.72;1.77;;;10.20;95.30;;;;;;5012173;28;20101;-77
2021/10/16 05:43:46;;;;;;;2.97;1.60;;;10.20;95.30;;;;;;5012772;28;20030;-78
2021/10/16 05:46:12;;;;;;;9.20;2.40;;;10.20;95.30;;;;;;5012030;28;20026;-78
2021/10/16 05:48:37;;;;;;;4.68;1.80;;;10.10;95.30;;;;;;5011423;28;20041;-77
2021/10/16 05:51:03;;;;;;;5.80;2.05;;;10.10;95.30;;;;;;5011347;28;20493;-78
2021/10/16 05:53:29;;;;;;;8.23;2.10;;;10.10;95.30;;;;;;5010630;28;20185;-77
2021/10/16 05:55:55;;;;;;;3.97;1.90;;;10.20;95.30;;;;;;5011290;28;20028;-78
2021/10/16 05:58:20;;;;;;;4.18;1.92;;;10.20;95.30;;;;;;5011628;28;20033;-78
2021/10/16 06:00:46;;;;;;;5.45;2.30;;;10.20;95.30;;;;;;5011197;28;20026;-78
2021/10/16 06:03:12;;;;;;;4.85;1.90;;;10.20;95.30;;;;;;5011153;28;20030;-78
2021/10/16 06:05:38;;;;;;;3.65;1.45;;;10.20;95.30;;;;;;5011055;28;20502;-78
2021/10/16 06:08:05;;;;;;;8.40;2.28;;;10.20;95.40;;;;;;5011099;28;20037;-78
2021/10/16 06:10:31;;;;;;;4.70;1.98;;;10.30;95.40;;;;;;5027227;28;20029;-78
2021/10/16 06:12:57;;;;;;;3.88;2.00;;;10.30;95.30;;;;;;5012391;28;20037;-78
2021/10/16 06:15:22;;;;;;;4.15;1.95;;;10.30;95.30;;;;;;5011844;28;20036;-77
2021/10/16 06:17:48;;;;;;;5.15;2.13;;;10.30;95.30;;;;;;5012256;28;20097;-77
2021/10/16 06:20:14;;;;;;;7.50;2.13;;;10.30;95.30;;;;;;5011587;28;20033;-78
2021/10/16 06:22:40;;;;;;;4.07;1.85;;;10.30;95.30;;;;;;5011045;28;20058;-78
2021/10/16 06:25:06;;;;;;;5.43;1.90;;;10.30;95.30;;;;;;5015575;28;20046;-78
2021/10/16 06:27:32;;;;;;;6.95;2.10;;;10.30;95.30;;;;;;5015641;28;20018;-78
2021/10/16 06:29:58;;;;;;;4.32;1.98;;;10.30;95.30;;;;;;5014956;28;20049;-78
2021/10/16 06:32:24;;;;;;;5.82;2.17;;;10.30;95.30;;;;;;5015341;28;20053;-78
2021/10/16 06:34:49;;;;;;;3.58;1.98;;;10.30;95.30;;;;;;5016154;28;20025;-78
2021/10/16 06:37:15;;;;;;;6.45;2.42;;;10.40;95.40;;;;;;5015513;28;20065;-78
2021/10/16 06:39:41;;;;;;;4.75;2.30;;;10.40;95.40;;;;;;5014812;28;20026;-77
2021/10/16 06:42:07;;;;;;;5.97;2.20;;;10.50;95.40;;;;;;5014735;28;20028;-76
2021/10/16 06:44:32;;;;;;;5.50;2.58;;;10.50;95.40;;;;;;5015061;28;20033;-78
2021/10/16 06:46:58;;;;;;;4.80;2.20;;;10.50;95.30;;;;;;5016063;28;20381;-75
2021/10/16 06:49:24;;;;;;;5.07;2.10;;;10.50;95.30;;;;;;5015318;28;20030;-75
2021/10/16 06:51:49;;;;;;;7.22;2.67;;;10.60;95.30;;;;;;5015549;28;20021;-75
2021/10/16 06:54:17;;;;;;;6.05;2.20;;;10.60;95.30;;;;;;5015343;28;20037;-78
2021/10/16 06:56:42;;;;;;;5.50;2.70;;;10.60;95.30;;;;;;5015722;28;20068;-78
2021/10/16 06:59:08;;;;;;;9.73;2.38;;;10.60;95.30;;;;;;5015728;28;20030;-78
2021/10/16 07:01:33;;;;;;;4.97;1.98;;;10.60;95.30;;;;;;5014806;28;20466;-78
2021/10/16 07:03:59;;;;;;;6.82;2.67;;;10.60;95.30;;;;;;5015590;28;20036;-78
2021/10/16 07:06:25;;;;;;;6.47;2.40;;;10.70;95.30;;;;;;5014874;28;20026;-78
2021/10/16 07:08:50;;;;;;;6.97;2.47;;;10.70;95.30;;;;;;5014269;28;20471;-77
2021/10/16 07:11:16;;;;;;;7.10;2.72;;;10.70;95.30;;;;;;5015476;28;20049;-76
2021/10/16 07:13:42;;;;;;;5.72;2.55;;;10.80;95.20;;;;;;5013761;28;20030;-75
2021/10/16 07:16:08;;;;;;;3.85;2.20;;;10.80;95.20;;;;;;5014073;28;20429;-75
2021/10/16 07:18:34;;;;;;;4.40;2.40;;;10.80;95.20;;;;;;5013384;28;20057;-75
2021/10/16 07:20:59;;;;;;;3.95;2.47;;;10.80;95.20;;;;;;5015274;28;20069;-75
2021/10/16 07:23:28;;;;;;;5.57;2.40;;;10.80;95.10;;;;;;5013364;28;20188;-75
2021/10/16 07:25:55;;;;;;;7.72;2.65;;;10.80;95.10;;;;;;5015309;28;20026;-75
2021/10/16 07:28:21;;;;;;;4.60;2.08;;;10.80;95.10;;;;;;5013143;28;20028;-75
2021/10/16 07:30:46;;;;;;;8.65;2.85;;;10.90;95.10;;;;;;5015137;28;20026;-77
2021/10/16 07:33:13;;;;;;;4.03;2.13;;;10.90;95.10;;;;;;5014725;28;20521;-77
2021/10/16 07:35:44;;;;;;;8.27;2.45;;;11.00;95.10;;;;;;5013995;28;20516;-77
2021/10/16 07:38:11;;;;;;;5.85;2.40;;;11.00;95.00;;;;;;5015065;28;20073;-77
2021/10/16 07:40:37;;;;;;;6.55;2.40;;;11.00;95.00;;;;;;5014053;28;20029;-77
2021/10/16 07:43:02;;;;;;;5.93;2.20;;;11.00;95.00;;;;;;5013634;28;20026;-77
2021/10/16 07:45:28;;;;;;;6.18;2.70;;;11.00;94.90;;;;;;5029489;28;20488;-78
2021/10/16 07:47:54;;;;;;;8.88;2.50;;;11.00;94.90;;;;;;5015018;28;20025;-77
2021/10/16 07:50:20;;;;;;;7.45;2.63;;;11.00;94.90;;;;;;5012795;28;20018;-77
2021/10/16 07:52:46;;;;;;;5.53;2.55;;;11.00;94.80;;;;;;5014593;28;20029;-78
2021/10/16 07:55:12;;;;;;;5.53;2.28;;;11.10;94.80;;;;;;5013431;28;20084;-77
2021/10/16 07:57:38;;;;;;;6.18;2.83;;;11.10;94.80;;;;;;5014293;28;20474;-77
2021/10/16 08:00:05;;;;;;;4.25;2.33;;;11.10;94.80;;;;;;5014560;28;20064;-77
2021/10/16 08:02:31;;;;;;;5.85;2.30;;;11.20;94.80;;;;;;5012657;28;20501;-77
2021/10/16 08:04:59;;;;;;;8.52;2.50;;;11.20;94.80;;;;;;5013297;28;20034;-77
2021/10/16 08:07:28;;;;;;;7.63;2.53;;;11.20;94.70;;;;;;5012753;28;20375;-77
2021/10/16 08:09:53;;;;;;;7.88;2.53;;;11.30;94.70;;;;;;5014407;28;20025;-77
2021/10/16 08:12:19;;;;;;;5.93;2.35;;;11.30;94.70;;;;;;5012984;28;20025;-77
2021/10/16 08:14:45;;;;;;;6.47;2.67;;;11.30;94.60;;;;;;5013700;28;20565;-77
2021/10/16 08:17:10;;;;;;;4.32;2.20;;;11.40;94.60;;;;;;5014583;28;20033;-77
2021/10/16 08:19:36;;;;;;;4.65;2.47;;;11.40;94.60;;;;;;5013936;28;20021;-77
2021/10/16 08:22:02;;;;;;;4.43;2.08;;;11.50;94.60;;;;;;5012760;28;20032;-77
2021/10/16 08:24:28;;;;;;;6.78;2.65;;;11.40;94.50;;;;;;5012127;28;20021;-77
2021/10/16 08:26:54;;;;;;;6.97;2.50;;;11.50;94.50;;;;;;5012664;28;20488;-77
2021/10/16 08:29:20;;;;;;;6.22;3.05;;;11.50;94.40;;;;;;5012465;28;20382;-77
2021/10/16 08:31:45;;;;;;;4.00;2.30;;;11.50;94.40;;;;;;5013350;28;20462;-76
2021/10/16 08:34:11;;;;;;;7.38;2.47;;;11.50;94.40;;;;;;5013859;28;20056;-77
2021/10/16 08:36:38;;;;;;;9.40;2.42;;;11.50;94.40;;;;;;5011926;28;20053;-77
2021/10/16 08:39:05;;;;;;;11.85;2.72;;;11.50;94.30;;;;;;5012403;28;20149;-77
2021/10/16 08:41:32;;;;;;;5.45;2.63;;;11.60;94.40;;;;;;5012656;28;20422;-77
2021/10/16 08:43:58;;;;;;;6.95;2.28;;;11.60;94.30;;;;;;5012288;28;20467;-77
2021/10/16 08:46:26;;;;;;;5.70;2.42;;;11.60;94.30;;;;;;5012429;28;20040;-77
2021/10/16 08:49:00;;;;;;;3.75;2.13;;;11.70;94.30;;;;;;5013219;28;20033;-76
2021/10/16 08:51:25;;;;;;;6.03;2.30;;;11.80;94.20;;;;;;5011629;28;20033;-77
2021/10/16 08:53:51;;;;;;;5.45;2.65;;;11.80;94.20;;;;;;5013214;28;20034;-77
2021/10/16 08:56:20;;;;;;;7.28;2.38;;;11.90;94.10;;;;;;5011701;28;20164;-77
2021/10/16 08:58:45;;;;;;;4.97;2.15;;;11.90;94.10;;;;;;5011439;28;20382;-77
2021/10/16 09:01:11;;;;;;;4.80;2.65;;;11.90;94.10;;;;;;5012076;28;20451;-77
2021/10/16 09:03:46;;;;;;;3.63;2.60;;;12.00;94.00;;;;;;5012796;28;20096;-77
2021/10/16 09:06:25;;;;;;;4.80;2.83;;;12.10;94.00;;;;;;5028139;28;20073;-77
2021/10/16 09:08:53;;;;;;;6.30;2.38;;;12.10;93.90;;;;;;5013324;28;20084;-77
2021/10/16 09:11:24;;;;;;;4.93;2.67;;;12.20;93.90;;;;;;5012734;28;20537;-77
2021/10/16 09:14:00;;;;;;;7.38;2.60;;;12.20;93.80;;;;;;5011132;28;20034;-77
2021/10/16 09:16:30;;;;;;;5.72;2.30;;;12.20;93.80;;;;;;5011234;28;20034;-77
2021/10/16 09:19:04;;;;;;;6.32;2.15;;;12.30;93.80;;;;;;5013194;28;20101;-76
2021/10/16 09:21:32;;;;;;;5.50;2.40;;;12.30;93.80;;;;;;5011200;28;20030;-76
2021/10/16 09:24:08;;;;;;;5.40;2.53;;;12.30;93.80;;;;;;5012939;28;20029;-76
2021/10/16 09:26:37;;;;;;;7.60;2.70;;;12.30;93.70;;;;;;5011168;28;20026;-76
2021/10/16 09:29:05;;;;;;;9.05;1.98;;;12.30;93.70;;;;;;5012497;28;20080;-76
2021/10/16 09:31:37;;;;;;;6.55;2.42;;;12.30;93.60;;;;;;5010918;28;20030;-77
2021/10/16 09:34:03;;;;;;;6.40;2.72;;;12.30;93.70;;;;;;5012759;28;20099;-77
2021/10/16 09:36:31;;;;;;;5.10;2.40;;;12.30;93.60;;;;;;5011805;28;20050;-77
2021/10/16 09:38:58;;;;;;;7.88;2.70;;;12.30;93.70;;;;;;5012618;28;20029;-77
2021/10/16 09:41:26;;;;;;;5.78;2.10;;;12.30;93.70;;;;;;5012698;28;20048;-76
2021/10/16 09:43:52;;;;;;;5.63;2.10;;;12.30;93.70;;;;;;5010628;28;20481;-78
2021/10/16 09:46:19;;;;;;;9.65;2.40;;;12.30;93.70;;;;;;5011253;28;20026;-77
2021/10/16 09:48:46;;;;;;;6.43;1.88;;;12.40;93.60;;;;;;5011772;28;20025;-77
2021/10/16 09:51:14;;;;;;;8.20;2.40;;;12.50;93.50;;;;;;5011310;28;20034;-78
2021/10/16 09:53:43;;;;;;;5.50;2.35;;;12.50;93.40;;;;;;5010600;28;20091;-77
2021/10/16 09:56:11;;;;;;;6.10;1.80;;;12.50;93.30;;;;;;5011158;28;20026;-77
2021/10/16 09:58:38;;;;;;;4.43;2.15;;;12.60;93.30;;;;;;5011794;28;20033;-78
2021/10/16 10:01:04;;;;;;;6.72;1.95;;;12.60;93.20;;;;;;5012449;28;20025;-77
2021/10/16 10:03:32;;;;;;;10.60;2.30;;;12.70;93.20;;;;;;5010931;28;20486;-78
2021/10/16 10:05:58;;;;;;;5.50;1.98;;;12.70;93.10;;;;;;5011222;28;20022;-77
2021/10/16 10:08:24;;;;;;;7.43;2.20;;;12.70;93.00;;;;;;5010665;28;20030;-78
2021/10/16 10:10:50;;;;;;;4.95;1.65;;;12.70;93.00;;;;;;5010440;28;20034;-78
2021/10/16 10:13:17;;;;;;;5.47;2.00;;;12.70;93.00;;;;;;5012284;28;20073;-78
2021/10/16 10:15:43;;;;;;;5.18;1.83;;;12.80;93.00;;;;;;5011824;28;20100;-78
2021/10/16 10:20:56;;;;;;;6.57;1.80;;;12.80;92.90;;;;;;5011391;28;20037;-78
2021/10/16 10:23:24;;;;;;;6.45;1.98;;;12.80;92.90;;;;;;5012208;28;20169;-78
2021/10/16 10:26:02;;;;;;;3.90;1.67;;;12.80;92.80;;;;;;5011645;28;20022;-78
2021/10/16 10:28:54;;;;;;;3.80;2.22;;;12.90;92.80;;;;;;5012250;28;20106;-79
2021/10/16 10:31:45;;;;;;;7.63;2.38;;;12.90;92.70;;;;;;5012296;28;20026;-77
2021/10/16 10:34:12;;;;;;;5.93;2.20;;;12.90;92.50;;;;;;5011605;28;20057;-77
2021/10/16 10:36:52;;;;;;;5.53;1.80;;;12.90;92.50;;;;;;5010100;28;20433;-77
2021/10/16 10:39:33;;;;;;;6.93;1.98;;;13.00;92.40;;;;;;5012072;28;20147;-77
2021/10/16 10:42:13;;;;;;;6.65;2.10;;;13.00;92.20;;;;;;5011977;28;20363;-77
2021/10/16 10:44:39;;;;;;;5.78;1.65;;;13.00;92.10;;;;;;5011482;28;20033;-77
2021/10/16 10:47:23;;;;;;;2.55;1.27;;;13.10;92.00;;;;;;5010857;28;20163;-78
2021/10/16 10:49:49;;;;;;;5.82;1.70;;;13.10;91.90;;;;;;5011823;28;20033;-78
2021/10/16 10:52:15;;;;;;;4.90;1.70;;;13.10;91.80;;;;;;5010794;28;20052;-78
2021/10/16 10:55:08;;;;;;;6.13;2.90;;;13.20;91.80;;;;;;5011285;28;20026;-77
2021/10/16 10:57:50;;;;;;;4.45;1.42;;;13.20;91.60;;;;;;5006667;28;20034;-77
2021/10/16 11:00:40;;;;;;;6.65;2.25;;;13.20;91.60;;;;;;5011982;28;20113;-78
2021/10/16 11:03:27;;;;;;;2.78;1.27;;;13.30;91.60;;;;;;5010520;28;20050;-78
2021/10/16 11:06:21;;;;;;;5.60;1.90;;;13.30;91.50;;;;;;5010914;28;20242;-78
2021/10/16 11:08:49;;;;;;;3.63;1.70;;;13.40;91.50;;;;;;5011599;28;20021;-77
2021/10/16 11:11:15;;;;;;;6.80;1.75;;;13.40;91.40;;;;;;5030197;28;20370;-78
2021/10/16 11:13:41;;;;;;;2.97;1.50;;;13.50;91.30;;;;;;5014700;28;20137;-77
2021/10/16 11:16:07;;;;;;;9.10;2.33;;;13.50;91.20;;;;;;5015880;28;20411;-77
2021/10/16 11:18:33;;;;;;;4.55;1.80;;;13.60;91.20;;;;;;5013793;28;20405;-77
2021/10/16 11:21:12;;;;;;;5.35;2.05;;;13.70;91.10;;;;;;5014911;28;20401;-78
2021/10/16 11:23:40;;;;;;;5.30;1.92;;;13.70;90.90;;;;;;5013333;28;20124;-77
2021/10/16 11:26:10;;;;;;;7.25;1.60;;;13.80;90.90;;;;;;5013982;28;20029;-77
2021/10/16 11:28:38;;;;;;;4.97;1.50;;;13.80;90.90;;;;;;5029645;28;20022;-77
2021/10/16 11:31:05;;;;;;;7.03;1.65;;;13.90;90.70;;;;;;5014976;28;20495;-78
2021/10/16 11:33:36;;;;;;;4.65;2.00;;;13.90;90.70;;;;;;5015006;28;20054;-78
2021/10/16 11:36:02;;;;;;;9.63;1.85;;;13.90;90.70;;;;;;5014966;28;20022;-78
2021/10/16 11:38:33;;;;;;;5.38;1.42;;;13.90;90.50;;;;;;5013577;28;20374;-78
2021/10/16 11:41:00;;;;;;;4.95;1.70;;;13.90;90.40;;;;;;5014352;28;20030;-79
2021/10/16 11:43:36;;;;;;;4.25;1.55;;;13.90;90.10;;;;;;5013558;28;20083;-79
2021/10/16 11:46:03;;;;;;;6.50;2.47;;;13.90;90.00;;;;;;5013482;28;20026;-79
2021/10/16 11:48:29;;;;;;;4.32;1.55;;;14.00;89.60;;;;;;5014582;28;20390;-79
2021/10/16 11:51:06;;;;;;;7.22;1.80;;;14.00;89.50;;;;;;5012915;28;20026;-78
2021/10/16 11:53:34;;;;;;;4.63;1.58;;;14.10;89.50;;;;;;5014704;28;20025;-78
2021/10/16 11:56:01;;;;;;;4.38;1.33;;;14.10;89.60;;;;;;5012705;28;20371;-78
2021/10/16 11:58:29;;;;;;;3.40;1.17;;;14.20;89.60;;;;;;5014620;28;20022;-77
2021/10/16 12:01:14;;;;;;;9.38;1.90;;;14.40;89.60;;;;;;5014213;28;20034;-78
2021/10/16 12:03:42;;;;;;;4.47;1.33;;;14.40;89.30;;;;;;5012618;28;20022;-78
2021/10/16 12:06:10;;;;;;;3.70;1.73;;;14.50;89.20;;;;;;5014496;28;20026;-78
2021/10/16 12:08:58;;;;;;;3.90;1.30;;;14.50;89.10;;;;;;5014498;28;20022;-79
2021/10/16 12:11:32;;;;;;;3.30;1.27;;;14.60;88.90;;;;;;5012798;28;20142;-77
2021/10/16 12:13:58;;;;;;;2.90;0.80;;;14.60;89.00;;;;;;5012393;28;20032;-77
2021/10/16 12:16:38;;;;;;;3.95;1.45;;;14.60;88.80;;;;;;5012890;28;20490;-77
2021/10/16 12:19:11;;;;;;;8.85;1.80;;;14.60;87.90;;;;;;5013171;28;20048;-77
2021/10/16 12:21:39;;;;;;;6.55;1.25;;;14.50;87.00;;;;;;5011313;28;20022;-78
2021/10/16 12:24:16;;;;;;;8.75;1.60;;;14.50;86.80;;;;;;5005175;28;20093;-82
2021/10/16 12:26:45;;;;;;;4.72;1.52;;;14.50;86.70;;;;;;5012285;28;20037;-78
2021/10/16 12:29:26;;;;;;;6.05;1.35;;;14.50;86.80;;;;;;5013858;28;20034;-77
2021/10/16 12:31:52;;;;;;;4.55;1.42;;;14.50;86.50;;;;;;5003937;28;20030;-78
2021/10/16 12:34:18;;;;;;;4.63;1.10;;;14.50;86.30;;;;;;5026009;28;20042;-77
2021/10/16 12:36:55;;;;;;;5.38;1.45;;;14.50;86.20;;;;;;5012793;28;20378;-76
2021/10/16 12:39:33;;;;;;;2.97;1.40;;;14.40;86.10;;;;;;5009878;28;20046;-78
2021/10/16 12:42:08;;;;;;;3.92;1.55;;;14.40;86.00;;;;;;5009959;28;20173;-77
2021/10/16 12:44:35;;;;;;;3.90;1.50;;;14.40;85.90;;;;;;5011848;28;20073;-76
2021/10/16 12:47:09;;;;;;;6.05;1.58;;;14.40;85.80;;;;;;5011667;28;20036;-75
2021/10/16 12:49:49;;;;;;;5.28;1.55;;;14.30;85.90;;;;;;5013515;28;20022;-75
2021/10/16 12:52:35;;;;;;;5.53;1.50;;;14.30;85.80;;;;;;5012279;28;20379;-76
2021/10/16 12:55:19;;;;;;;6.10;1.27;;;14.40;85.60;;;;;;5012970;28;20523;-76
2021/10/16 12:58:02;;;;;;;2.72;1.00;;;14.30;85.40;;;;;;5011616;28;20113;-76